createdAt,value
2022-07-29T00:01:21.419Z,1.50
2022-07-29T00:03:49.756Z,1.60
2022-07-29T00:06:18.585Z,1.40
2022-07-29T00:08:46.734Z,1.70
2022-07-29T00:11:15.033Z,1.50
2022-07-29T00:13:45.368Z,1.50
2022-07-29T00:16:17.108Z,1.50
2022-07-29T00:18:45.468Z,1.70
2022-07-29T00:21:13.871Z,1.50
2022-07-29T00:23:42.249Z,1.60
2022-07-29T00:26:10.423Z,1.60
2022-07-29T00:28:38.360Z,1.40
2022-07-29T00:31:06.527Z,1.60
2022-07-29T00:33:35.159Z,1.40
2022-07-29T00:36:03.433Z,1.70
2022-07-29T00:38:31.609Z,1.60
2022-07-29T00:40:59.697Z,1.70
2022-07-29T00:43:28.314Z,1.40
2022-07-29T00:45:56.682Z,1.60
2022-07-29T00:48:24.635Z,1.40
2022-07-29T00:50:53.221Z,1.70
2022-07-29T00:53:21.619Z,1.40
2022-07-29T00:55:52.497Z,1.50
2022-07-29T00:58:24.179Z,1.40
2022-07-29T01:00:53.541Z,1.60
2022-07-29T01:03:21.638Z,1.30
2022-07-29T01:05:50.811Z,1.30
2022-07-29T01:08:21.450Z,1.60
2022-07-29T01:10:52.031Z,1.40
2022-07-29T01:13:21.663Z,1.50
2022-07-29T01:16:05.090Z,1.50
2022-07-29T01:18:41.890Z,1.30
2022-07-29T01:21:31.285Z,1.20
2022-07-29T01:24:23.945Z,1.40
2022-07-29T01:27:42.694Z,1.50
2022-07-29T01:30:15.695Z,1.40
2022-07-29T01:32:55.741Z,1.50
2022-07-29T01:35:37.385Z,1.30
2022-07-29T01:38:29.249Z,1.40
2022-07-29T01:41:09.922Z,1.30
2022-07-29T01:43:53.041Z,1.50
2022-07-29T01:46:36.308Z,1.30
2022-07-29T01:49:19.034Z,1.40
2022-07-29T01:52:04.572Z,1.50
2022-07-29T01:54:47.115Z,1.40
2022-07-29T01:57:19.669Z,1.40
2022-07-29T01:59:51.256Z,1.20
2022-07-29T02:02:20.873Z,1.30
2022-07-29T02:04:51.690Z,1.30
2022-07-29T02:07:24.624Z,1.40
2022-07-29T02:09:55.975Z,1.30
2022-07-29T02:12:26.709Z,1.40
2022-07-29T02:14:59.720Z,1.40
2022-07-29T02:17:34.575Z,1.30
2022-07-29T02:20:09.494Z,1.20
2022-07-29T02:22:42.146Z,1.20
2022-07-29T02:25:13.824Z,1.30
2022-07-29T02:27:44.506Z,1.50
2022-07-29T02:30:14.290Z,1.30
2022-07-29T02:32:44.689Z,1.30
2022-07-29T02:35:18.037Z,1.40
2022-07-29T02:38:08.471Z,1.30
2022-07-29T02:40:40.909Z,1.40
2022-07-29T02:43:11.378Z,1.30
2022-07-29T02:45:40.674Z,1.30
2022-07-29T02:48:17.601Z,1.40
2022-07-29T02:51:00.737Z,1.30
2022-07-29T02:53:35.823Z,1.00
2022-07-29T02:56:14.198Z,1.20
2022-07-29T02:58:58.691Z,1.20
2022-07-29T03:01:32.618Z,1.40
2022-07-29T03:04:05.958Z,1.50
2022-07-29T03:06:38.071Z,1.30
2022-07-29T03:09:13.940Z,1.30
2022-07-29T03:11:50.498Z,1.30
2022-07-29T03:14:21.059Z,1.20
2022-07-29T03:16:52.150Z,1.10
2022-07-29T03:19:21.638Z,1.30
2022-07-29T03:21:50.862Z,1.30
2022-07-29T03:24:32.622Z,1.20
2022-07-29T03:27:02.275Z,1.20
2022-07-29T03:29:33.926Z,1.40
2022-07-29T03:32:08.205Z,1.30
2022-07-29T03:37:07.912Z,1.20
2022-07-29T03:39:42.644Z,1.30
2022-07-29T03:42:16.343Z,1.30
2022-07-29T03:44:48.647Z,1.30
2022-07-29T03:47:20.200Z,1.20
2022-07-29T03:49:55.227Z,1.00
2022-07-29T03:52:23.933Z,1.30
2022-07-29T03:54:52.328Z,1.30
2022-07-29T03:57:27.865Z,1.30
2022-07-29T03:59:56.887Z,1.20
2022-07-29T04:02:30.574Z,1.30
2022-07-29T04:04:59.574Z,1.30
2022-07-29T04:07:27.787Z,1.50
2022-07-29T04:09:55.822Z,1.20
2022-07-29T04:12:24.013Z,1.30
2022-07-29T04:14:51.950Z,1.30
2022-07-29T04:17:20.016Z,1.30
2022-07-29T04:19:48.323Z,1.10
2022-07-29T04:22:16.226Z,1.20
2022-07-29T04:24:44.598Z,1.30
2022-07-29T04:27:12.915Z,1.10
2022-07-29T04:29:56.789Z,1.30
2022-07-29T04:32:26.781Z,1.10
2022-07-29T04:34:54.965Z,1.20
2022-07-29T04:37:23.019Z,1.20
2022-07-29T04:39:51.821Z,1.30
2022-07-29T04:42:27.687Z,1.30
2022-07-29T04:44:56.171Z,1.10
2022-07-29T04:47:24.219Z,1.20
2022-07-29T04:49:52.562Z,1.30
2022-07-29T04:52:20.754Z,1.10
2022-07-29T04:54:49.541Z,1.30
2022-07-29T04:57:19.083Z,1.20
2022-07-29T04:59:48.575Z,1.30
2022-07-29T05:02:16.579Z,1.30
2022-07-29T05:04:44.678Z,1.20
2022-07-29T05:07:12.890Z,1.00
2022-07-29T05:09:41.577Z,1.20
2022-07-29T05:12:10.945Z,1.10
2022-07-29T05:14:39.468Z,1.30
2022-07-29T05:17:07.917Z,1.30
2022-07-29T05:19:39.689Z,1.10
2022-07-29T05:22:08.248Z,1.30
2022-07-29T05:24:36.507Z,0.90
2022-07-29T05:27:05.515Z,1.00
2022-07-29T05:29:44.344Z,1.30
2022-07-29T05:32:14.530Z,1.10
2022-07-29T05:34:51.203Z,1.20
2022-07-29T05:37:22.833Z,1.20
2022-07-29T05:39:56.692Z,1.20
2022-07-29T05:42:26.777Z,1.30
2022-07-29T05:44:54.980Z,1.20
2022-07-29T05:47:24.487Z,1.20
2022-07-29T05:49:52.744Z,1.20
2022-07-29T05:52:21.322Z,1.10
2022-07-29T05:54:50.391Z,1.20
2022-07-29T05:57:21.969Z,1.10
2022-07-29T05:59:51.512Z,1.30
2022-07-29T06:02:20.123Z,1.10
2022-07-29T06:04:48.419Z,1.10
2022-07-29T06:07:17.410Z,1.10
2022-07-29T06:09:45.578Z,1.10
2022-07-29T06:12:13.851Z,1.10
2022-07-29T06:14:42.233Z,1.20
2022-07-29T06:17:12.664Z,1.20
2022-07-29T06:19:40.731Z,1.20
2022-07-29T06:22:09.036Z,1.20
2022-07-29T06:24:38.978Z,1.30
2022-07-29T06:27:06.912Z,1.20
2022-07-29T06:29:35.375Z,1.20
2022-07-29T06:32:05.018Z,1.00
2022-07-29T06:34:32.911Z,1.10
2022-07-29T06:37:00.914Z,1.10
2022-07-29T06:39:29.301Z,1.10
2022-07-29T06:41:57.372Z,1.10
2022-07-29T06:44:26.593Z,1.10
2022-07-29T06:46:56.377Z,1.20
2022-07-29T06:49:25.645Z,1.20
2022-07-29T06:51:54.016Z,1.40
2022-07-29T06:54:23.015Z,1.50
2022-07-29T06:56:51.358Z,1.30
2022-07-29T06:59:22.940Z,1.20
2022-07-29T07:01:54.334Z,1.20
2022-07-29T07:04:22.303Z,1.30
2022-07-29T07:06:50.293Z,1.20
2022-07-29T07:09:18.372Z,1.40
2022-07-29T07:11:46.527Z,1.30
2022-07-29T07:14:18.477Z,1.40
2022-07-29T07:16:46.828Z,1.30
2022-07-29T07:19:16.049Z,1.40
2022-07-29T07:21:44.337Z,1.20
2022-07-29T07:24:12.533Z,1.40
2022-07-29T07:26:41.179Z,1.30
2022-07-29T07:29:09.274Z,1.30
2022-07-29T07:31:39.072Z,1.40
2022-07-29T07:34:07.329Z,1.40
2022-07-29T07:36:35.334Z,1.30
2022-07-29T07:39:04.667Z,1.10
2022-07-29T07:41:32.913Z,1.50
2022-07-29T07:44:01.331Z,1.10
2022-07-29T07:46:29.591Z,1.20
2022-07-29T07:48:57.711Z,1.20
2022-07-29T07:51:26.366Z,1.20
2022-07-29T07:53:54.595Z,1.30
2022-07-29T07:56:23.001Z,1.40
2022-07-29T07:58:50.977Z,1.30
2022-07-29T08:01:20.868Z,1.40
2022-07-29T08:03:48.972Z,1.40
2022-07-29T08:06:17.211Z,1.20
2022-07-29T08:08:45.421Z,1.10
2022-07-29T08:11:14.398Z,1.20
2022-07-29T08:13:42.898Z,1.20
2022-07-29T08:16:14.152Z,1.30
2022-07-29T08:18:45.550Z,1.20
2022-07-29T08:21:15.950Z,1.10
2022-07-29T08:23:51.431Z,1.10
2022-07-29T08:26:23.605Z,1.10
2022-07-29T08:28:51.949Z,1.30
2022-07-29T08:31:20.016Z,1.20
2022-07-29T08:33:48.072Z,1.10
2022-07-29T08:36:16.075Z,1.20
2022-07-29T08:38:44.075Z,1.20
2022-07-29T08:41:12.257Z,1.20
2022-07-29T08:43:42.232Z,1.00
2022-07-29T08:46:10.352Z,1.20
2022-07-29T08:48:40.049Z,1.30
2022-07-29T08:51:09.519Z,1.20
2022-07-29T08:53:39.244Z,1.20
2022-07-29T08:56:07.985Z,1.10
2022-07-29T08:58:38.473Z,1.10
2022-07-29T09:01:12.215Z,1.20
2022-07-29T09:03:44.512Z,1.30
2022-07-29T09:06:20.938Z,1.30
2022-07-29T09:08:49.879Z,1.20
2022-07-29T09:11:18.369Z,1.10
2022-07-29T09:13:46.447Z,1.20
2022-07-29T09:16:26.685Z,1.40
2022-07-29T09:19:02.910Z,1.20
2022-07-29T09:22:02.971Z,1.20
2022-07-29T09:24:35.430Z,1.30
2022-07-29T09:27:09.781Z,1.20
2022-07-29T09:29:39.234Z,1.10
2022-07-29T09:32:11.862Z,1.10
2022-07-29T09:34:40.255Z,1.30
2022-07-29T09:37:08.565Z,0.90
2022-07-29T09:39:47.259Z,1.00
2022-07-29T09:42:31.008Z,1.10
2022-07-29T09:44:59.285Z,1.00
2022-07-29T09:47:50.259Z,1.30
2022-07-29T09:50:24.714Z,1.10
2022-07-29T09:52:56.859Z,1.20
2022-07-29T09:55:25.103Z,1.20
2022-07-29T09:57:53.529Z,1.10
2022-07-29T10:00:24.249Z,1.10
2022-07-29T10:03:02.736Z,1.10
2022-07-29T10:05:35.940Z,1.20
2022-07-29T10:08:06.962Z,1.10
2022-07-29T10:10:39.306Z,1.30
2022-07-29T10:13:16.104Z,1.20
2022-07-29T10:15:47.355Z,1.10
2022-07-29T10:18:18.684Z,1.10
2022-07-29T10:20:46.832Z,1.10
2022-07-29T10:23:15.528Z,1.40
2022-07-29T10:25:46.485Z,1.10
2022-07-29T10:28:16.712Z,1.00
2022-07-29T10:30:48.075Z,1.20
2022-07-29T10:34:15.782Z,1.00
2022-07-29T10:37:19.666Z,1.20
2022-07-29T10:40:45.794Z,1.10
2022-07-29T10:43:25.728Z,1.00
2022-07-29T10:46:00.373Z,1.20
2022-07-29T10:48:28.710Z,1.30
2022-07-29T10:51:06.888Z,1.20
2022-07-29T10:53:48.977Z,1.20
2022-07-29T10:56:28.528Z,1.10
2022-07-29T10:59:24.577Z,1.20
2022-07-29T11:02:06.383Z,1.00
2022-07-29T11:04:47.290Z,1.00
2022-07-29T11:10:15.414Z,1.00
2022-07-29T11:12:44.432Z,1.00
2022-07-29T11:15:20.041Z,1.10
2022-07-29T11:17:54.489Z,1.30
2022-07-29T11:20:54.830Z,1.10
2022-07-29T11:23:34.842Z,1.30
2022-07-29T11:26:28.634Z,1.00
2022-07-29T11:28:57.112Z,1.10
2022-07-29T11:31:39.839Z,1.20
2022-07-29T11:34:36.737Z,1.20
2022-07-29T11:37:12.596Z,1.00
2022-07-29T11:40:08.334Z,1.30
2022-07-29T11:42:36.733Z,1.20
2022-07-29T11:45:42.785Z,1.10
2022-07-29T11:48:31.581Z,1.10
2022-07-29T11:51:00.878Z,1.00
2022-07-29T11:53:33.021Z,1.20
2022-07-29T11:56:02.799Z,1.00
2022-07-29T11:58:32.877Z,0.90
2022-07-29T12:01:04.782Z,1.00
2022-07-29T12:03:36.877Z,1.10
2022-07-29T12:07:03.447Z,1.00
2022-07-29T12:09:11.217Z,1.00
2022-07-29T12:11:47.318Z,1.40
2022-07-29T12:14:33.197Z,1.00
2022-07-29T12:17:02.644Z,1.10
2022-07-29T12:19:44.999Z,1.00
2022-07-29T12:22:13.082Z,1.00
2022-07-29T12:24:45.753Z,1.20
2022-07-29T12:27:19.439Z,0.90
2022-07-29T12:30:07.526Z,1.10
2022-07-29T12:32:47.294Z,1.20
2022-07-29T12:35:22.232Z,1.10
2022-07-29T12:37:52.730Z,1.10
2022-07-29T12:40:22.392Z,1.00
2022-07-29T12:43:11.822Z,1.20
2022-07-29T12:45:43.481Z,1.00
2022-07-29T12:48:12.732Z,1.20
2022-07-29T12:51:15.531Z,1.10
2022-07-29T12:54:04.275Z,1.00
2022-07-29T12:56:42.850Z,1.00
2022-07-29T12:59:21.597Z,1.00
2022-07-29T13:01:53.392Z,1.10
2022-07-29T13:04:34.401Z,1.10
2022-07-29T13:07:09.220Z,0.90
2022-07-29T13:09:45.095Z,0.90
2022-07-29T13:12:15.750Z,1.10
2022-07-29T13:14:49.547Z,1.00
2022-07-29T13:17:21.806Z,1.10
2022-07-29T13:20:06.192Z,1.10
2022-07-29T13:22:37.097Z,1.10
2022-07-29T13:25:07.697Z,1.20
2022-07-29T13:27:38.854Z,1.00
2022-07-29T13:30:10.801Z,1.20
2022-07-29T13:32:39.889Z,1.10
2022-07-29T13:35:10.956Z,1.10
2022-07-29T13:37:39.745Z,1.10
2022-07-29T13:40:10.423Z,0.80
2022-07-29T13:42:39.324Z,1.10
2022-07-29T13:45:11.837Z,1.00
2022-07-29T13:47:43.588Z,1.10
2022-07-29T13:50:15.610Z,0.90
2022-07-29T13:52:44.096Z,1.00
2022-07-29T13:55:12.168Z,1.10
2022-07-29T13:57:40.547Z,1.00
2022-07-29T14:00:09.915Z,1.00
2022-07-29T14:02:39.658Z,0.90
2022-07-29T14:05:09.208Z,1.10
2022-07-29T14:07:40.542Z,1.10
2022-07-29T14:10:09.954Z,0.90
2022-07-29T14:12:38.004Z,1.10
2022-07-29T14:15:07.409Z,1.20
2022-07-29T14:17:35.971Z,1.00
2022-07-29T14:20:05.822Z,1.00
2022-07-29T14:22:37.856Z,1.20
2022-07-29T14:25:15.099Z,1.10
2022-07-29T14:27:44.896Z,1.00
2022-07-29T14:30:14.439Z,1.00
2022-07-29T14:32:42.553Z,1.20
2022-07-29T14:35:10.681Z,0.90
2022-07-29T14:37:40.498Z,1.10
2022-07-29T14:40:11.558Z,1.00
2022-07-29T14:42:40.878Z,1.10
2022-07-29T14:45:10.857Z,1.00
2022-07-29T14:47:40.623Z,1.10
2022-07-29T14:50:09.977Z,1.00
2022-07-29T14:52:38.026Z,1.00
2022-07-29T14:55:19.633Z,1.00
2022-07-29T14:57:51.098Z,1.00
2022-07-29T15:00:19.582Z,1.10
2022-07-29T15:03:04.204Z,1.20
2022-07-29T15:05:33.542Z,1.00
2022-07-29T15:08:02.225Z,1.10
2022-07-29T15:10:30.837Z,0.80
2022-07-29T15:12:59.089Z,1.00
2022-07-29T15:15:27.271Z,0.90
2022-07-29T15:17:55.552Z,1.00
2022-07-29T15:20:26.578Z,1.00
2022-07-29T15:22:56.631Z,1.00
2022-07-29T15:25:28.218Z,1.10
2022-07-29T15:28:01.166Z,0.90
2022-07-29T15:30:33.210Z,1.00
2022-07-29T15:33:04.603Z,1.00
2022-07-29T15:35:33.616Z,1.10
2022-07-29T15:38:09.480Z,1.00
2022-07-29T15:40:44.599Z,1.20
2022-07-29T15:43:12.917Z,0.80
2022-07-29T15:46:06.664Z,1.00
2022-07-29T15:48:39.613Z,1.10
2022-07-29T15:51:08.247Z,1.10
2022-07-29T15:53:36.340Z,1.00
2022-07-29T15:56:05.592Z,1.00
2022-07-29T15:58:33.562Z,0.90
2022-07-29T16:01:01.647Z,1.00
2022-07-29T16:03:30.305Z,0.90
2022-07-29T16:05:58.600Z,1.10
2022-07-29T16:08:26.669Z,1.00
2022-07-29T16:10:54.660Z,1.30
2022-07-29T16:13:23.288Z,0.90
2022-07-29T16:16:02.333Z,1.10
2022-07-29T16:18:31.360Z,1.10
2022-07-29T16:20:59.691Z,0.80
2022-07-29T16:23:27.630Z,1.00
2022-07-29T16:26:00.818Z,1.10
2022-07-29T16:28:31.011Z,1.20
2022-07-29T16:30:59.845Z,1.10
2022-07-29T16:33:28.679Z,0.90
2022-07-29T16:36:19.014Z,1.00
2022-07-29T16:38:47.978Z,1.10
2022-07-29T16:41:16.425Z,1.20
2022-07-29T16:43:44.710Z,1.10
2022-07-29T16:46:14.679Z,1.10
2022-07-29T16:48:48.567Z,1.10
2022-07-29T16:51:16.816Z,1.10
2022-07-29T16:53:45.349Z,1.10
2022-07-29T16:56:17.423Z,1.10
2022-07-29T16:58:45.349Z,1.10
2022-07-29T17:01:14.275Z,1.20
2022-07-29T17:04:02.422Z,1.20
2022-07-29T17:06:30.838Z,1.10
2022-07-29T17:08:59.096Z,1.30
2022-07-29T17:11:51.749Z,1.30
2022-07-29T17:14:15.569Z,1.30
2022-07-29T17:17:00.653Z,1.30
2022-07-29T17:19:35.701Z,1.30
2022-07-29T17:22:15.610Z,1.20
2022-07-29T17:24:48.567Z,1.20
2022-07-29T17:27:17.939Z,1.20
2022-07-29T17:29:46.886Z,1.10
2022-07-29T17:32:15.137Z,1.30
2022-07-29T17:34:44.101Z,1.20
2022-07-29T17:37:12.710Z,1.20
2022-07-29T17:39:42.514Z,1.30
2022-07-29T17:42:13.511Z,1.30
2022-07-29T17:44:42.154Z,1.20
2022-07-29T17:47:15.875Z,1.40
2022-07-29T17:49:45.923Z,1.30
2022-07-29T17:52:14.068Z,1.30
2022-07-29T17:54:41.989Z,1.10
2022-07-29T17:57:09.978Z,1.50
2022-07-29T17:59:38.031Z,1.30
2022-07-29T18:02:06.188Z,1.20
2022-07-29T18:04:34.277Z,1.20
2022-07-29T18:07:02.312Z,1.30
2022-07-29T18:09:30.527Z,1.40
2022-07-29T18:11:58.706Z,1.40
2022-07-29T18:14:26.673Z,1.40
2022-07-29T18:16:54.840Z,1.30
2022-07-29T18:19:23.011Z,1.20
2022-07-29T18:21:55.326Z,1.30
2022-07-29T18:24:25.964Z,1.20
2022-07-29T18:26:54.337Z,1.30
2022-07-29T18:29:22.403Z,1.20
2022-07-29T18:31:50.491Z,1.30
2022-07-29T18:34:18.771Z,1.20
2022-07-29T18:36:46.914Z,1.40
2022-07-29T18:39:20.919Z,1.40
2022-07-29T18:41:53.095Z,1.40
2022-07-29T18:44:22.890Z,1.30
2022-07-29T18:46:52.747Z,1.40
2022-07-29T18:49:21.157Z,1.60
2022-07-29T18:51:50.840Z,1.40
2022-07-29T18:54:19.773Z,1.40
2022-07-29T18:56:47.678Z,1.60
2022-07-29T18:59:17.230Z,1.40
2022-07-29T19:01:45.791Z,1.40
2022-07-29T19:04:14.032Z,1.40
2022-07-29T19:06:42.155Z,1.40
2022-07-29T19:09:11.895Z,1.40
2022-07-29T19:11:41.141Z,1.50
2022-07-29T19:14:09.381Z,1.40
2022-07-29T19:16:37.360Z,1.50
2022-07-29T19:19:07.352Z,1.40
2022-07-29T19:21:36.183Z,1.40
2022-07-29T19:24:08.527Z,1.30
2022-07-29T19:26:44.291Z,1.50
2022-07-29T19:29:14.216Z,1.40
2022-07-29T19:31:43.774Z,1.30
2022-07-29T19:34:12.439Z,1.40
2022-07-29T19:36:41.981Z,1.50
2022-07-29T19:39:10.526Z,1.50
2022-07-29T19:41:38.872Z,1.60
2022-07-29T19:44:06.792Z,1.40
2022-07-29T19:46:35.753Z,1.60
2022-07-29T19:49:07.107Z,1.60
2022-07-29T19:51:35.350Z,1.60
2022-07-29T19:54:03.924Z,1.50
2022-07-29T19:56:32.619Z,1.50
2022-07-29T19:59:00.860Z,1.50
2022-07-29T20:01:30.842Z,1.60
2022-07-29T20:03:59.070Z,1.50
2022-07-29T20:06:27.279Z,1.60
2022-07-29T20:08:58.745Z,1.50
2022-07-29T20:11:30.079Z,1.50
2022-07-29T20:13:58.725Z,1.50
2022-07-29T20:16:27.097Z,1.50
2022-07-29T20:18:55.385Z,1.40
2022-07-29T20:21:23.860Z,1.60
2022-07-29T20:23:53.572Z,1.50
2022-07-29T20:26:21.517Z,1.50
2022-07-29T20:28:49.824Z,1.70
2022-07-29T20:31:19.033Z,1.40
2022-07-29T20:33:47.336Z,1.60
2022-07-29T20:36:15.577Z,1.60
2022-07-29T20:38:43.692Z,1.60
2022-07-29T20:41:11.822Z,1.80
2022-07-29T20:43:40.300Z,1.80
2022-07-29T20:46:08.526Z,1.80
2022-07-29T20:48:36.982Z,1.50
2022-07-29T20:51:05.008Z,1.40
2022-07-29T20:53:33.973Z,1.60
2022-07-29T20:56:02.090Z,1.80
2022-07-29T20:58:30.161Z,1.60
2022-07-29T21:00:58.409Z,1.50
2022-07-29T21:03:28.149Z,1.70
2022-07-29T21:05:56.574Z,1.40
2022-07-29T21:08:25.403Z,1.70
2022-07-29T21:10:53.930Z,1.70
2022-07-29T21:13:23.231Z,1.60
2022-07-29T21:15:52.502Z,1.70
2022-07-29T21:18:37.188Z,1.50
2022-07-29T21:21:06.351Z,1.60
2022-07-29T21:23:35.448Z,1.70
2022-07-29T21:26:08.700Z,1.70
2022-07-29T21:28:40.766Z,1.70
2022-07-29T21:31:12.626Z,1.80
2022-07-29T21:33:43.825Z,1.60
2022-07-29T21:36:47.680Z,1.70
2022-07-29T21:39:07.239Z,1.60
2022-07-29T21:41:35.785Z,1.70
2022-07-29T21:44:03.887Z,1.50
2022-07-29T21:46:32.262Z,1.70
2022-07-29T21:49:00.401Z,1.40
2022-07-29T21:51:28.588Z,1.60
2022-07-29T21:53:56.702Z,1.70
2022-07-29T21:56:27.725Z,1.80
2022-07-29T21:58:56.387Z,1.50
2022-07-29T22:01:24.441Z,1.60
2022-07-29T22:03:52.696Z,1.60
2022-07-29T22:06:21.110Z,1.50
2022-07-29T22:08:49.086Z,1.70
2022-07-29T22:11:16.998Z,1.90
2022-07-29T22:13:48.296Z,1.60
2022-07-29T22:16:16.321Z,1.80
2022-07-29T22:18:46.972Z,1.60
2022-07-29T22:21:15.955Z,1.50
2022-07-29T22:23:43.891Z,1.60
2022-07-29T22:26:12.036Z,1.30
2022-07-29T22:28:40.585Z,1.80
2022-07-29T22:31:09.014Z,1.50
2022-07-29T22:33:37.238Z,1.60
2022-07-29T22:36:05.905Z,1.70
2022-07-29T22:38:34.167Z,1.50
2022-07-29T22:41:03.413Z,1.60
2022-07-29T22:43:31.811Z,1.80
2022-07-29T22:45:59.862Z,1.60
2022-07-29T22:48:27.968Z,1.50
2022-07-29T22:50:55.909Z,1.50
2022-07-29T22:53:23.925Z,1.40
2022-07-29T22:55:52.173Z,1.60
2022-07-29T22:58:20.249Z,1.40
2022-07-29T23:00:48.124Z,1.60
2022-07-29T23:03:16.352Z,1.50
2022-07-29T23:05:44.508Z,1.70
2022-07-29T23:08:12.735Z,1.50
2022-07-29T23:10:40.820Z,1.50
2022-07-29T23:13:08.801Z,1.40
2022-07-29T23:15:37.229Z,1.40
2022-07-29T23:18:05.844Z,1.50
2022-07-29T23:20:34.222Z,1.40
2022-07-29T23:23:02.401Z,1.50
2022-07-29T23:25:30.581Z,1.60
2022-07-29T23:27:58.639Z,1.50
2022-07-29T23:30:27.830Z,1.40
2022-07-29T23:32:56.340Z,1.70
2022-07-29T23:35:24.596Z,1.60
2022-07-29T23:37:52.783Z,1.60
2022-07-29T23:40:20.740Z,1.50
2022-07-29T23:42:48.728Z,1.40
2022-07-29T23:45:17.093Z,1.50
2022-07-29T23:47:46.072Z,1.60
2022-07-29T23:50:16.249Z,1.40
2022-07-29T23:52:44.998Z,1.50
2022-07-29T23:55:37.637Z,1.50
2022-07-29T23:58:03.123Z,1.40
